Ruso, ND

10:25 PM CDT on May 28, 2015 (GMT -0500)
Olson Farm | | Change Station
CLOSE
Current Station
Personal Weather Station
Location: Max, ND
Elevation: 2008 ft
Nearby Weather Stations

Elev 2008 ft 47.77 °N, 101.17 °W | Updated 10 minutes ago

Partly Cloudy
Partly Cloudy
61.7 °F
Feels Like 61.7 °F
N
23.5
Wind Variable Wind from North
Gusts 23.5 mph

Today
High -- | Low -- °F
--% Chance of Precip.
Yesterday
High -- | Low -- °F
Precip. -- in
5:52 AM 9:29 PM
Waxing Gibbous, 80% visible
Pressure 29.97 in
Visibility 10.0 miles
Clouds Mostly Cloudy 1400 ft
Dew Point 57 °F
Humidity 84%
Rainfall 0.00 in
Snow Depth Not available.
UV 0 out of 12
Pollen 2.70 out of 12
Air Quality Not available.
Flu Activity Sporadic
SPECI KMOT 290305Z AUTO 33023G28KT 10SM BKN014 13/09 A2997 RMK AO2 PK WND 33028/0305 RAE0259 P0000 T01330094

More Conditions Fewer Conditions

Pressure 29.97 in
Visibility 10.0 miles
Clouds Mostly Cloudy 1400 ft
Dew Point 57 °F
Humidity 84%
Rainfall 0.00 in
Snow Depth Not available.
UV 0 out of 12
Pollen 2.70 out of 12
Air Quality Not available.
Flu Activity Sporadic
SPECI KMOT 290305Z AUTO 33023G28KT 10SM BKN014 13/09 A2997 RMK AO2 PK WND 33028/0305 RAE0259 P0000 T01330094

More Conditions Fewer Conditions

10-Day Weather Forecast

Almanac

Astronomy

May. 28, 2015 Rise Set
Actual Time
Civil Twilight
Nautical Twilight
Astronomical Twilight
Moon
Length of Visible Light
Length of Day
Tomorrow will be .
, % of the Moon is Illuminated

Today's Extremes

State Highs State Lows

Community

WunderPhotos

Upload Photos

1,825,164 photos uploaded!

WunderBlogs® & News

Nearby

Air Quality

  Air Quality AQ Index Pollutant
Not available.

Snow Depth

Station Depth Elevation

Earthquake Activity

City Distance Mag. Time & Date
Minimum magnitude displayed is 2.5.

Coastal Water Temperatures

Place Temperature

Stations

Nearby Weather Stations

Station Location Temp. Windchill Dew Point Humidity Wind Precip. Elev Updated Type